createdAt,value
2022-11-23T00:00:13.116Z,15.75
2022-11-23T00:03:01.944Z,15.52
2022-11-23T00:05:52.144Z,15.70
2022-11-23T00:08:41.087Z,14.55
2022-11-23T00:11:30.297Z,14.80
2022-11-23T00:14:18.636Z,15.50
2022-11-23T00:17:07.229Z,14.50
2022-11-23T00:19:55.539Z,14.55
2022-11-23T00:22:45.260Z,14.80
2022-11-23T00:25:33.667Z,15.23
2022-11-23T00:28:21.997Z,16.35
2022-11-23T00:31:12.926Z,14.57
2022-11-23T00:34:01.225Z,15.98
2022-11-23T00:36:49.602Z,14.20
2022-11-23T00:39:39.250Z,14.43
2022-11-23T00:42:27.589Z,13.70
2022-11-23T00:45:16.089Z,13.93
2022-11-23T00:48:04.540Z,13.30
2022-11-23T00:50:52.878Z,13.60
2022-11-23T00:53:41.471Z,13.48
2022-11-23T00:56:32.075Z,13.85
2022-11-23T00:59:20.383Z,13.45
2022-11-23T01:02:08.724Z,13.88
2022-11-23T01:04:57.031Z,13.80
2022-11-23T01:07:45.369Z,13.27
2022-11-23T01:10:34.177Z,13.07
2022-11-23T01:13:23.845Z,13.18
2022-11-23T01:16:20.863Z,13.30
2022-11-23T01:19:13.817Z,13.20
2022-11-23T01:22:02.215Z,12.65
2022-11-23T01:24:51.461Z,14.07
2022-11-23T01:27:39.781Z,12.02
2022-11-23T01:30:29.721Z,13.52
2022-11-23T01:33:18.118Z,12.15
2022-11-23T01:36:14.030Z,12.75
2022-11-23T01:39:03.208Z,11.90
2022-11-23T01:41:51.527Z,13.07
2022-11-23T01:44:39.855Z,13.18
2022-11-23T01:47:29.599Z,12.35
2022-11-23T01:50:18.040Z,12.95
2022-11-23T01:53:06.895Z,13.20
2022-11-23T01:55:58.673Z,12.70
2022-11-23T01:58:51.946Z,12.90
2022-11-23T02:01:40.337Z,13.38
2022-11-23T02:04:33.802Z,14.00
2022-11-23T02:07:24.565Z,12.15
2022-11-23T02:10:15.983Z,12.63
2022-11-23T02:13:08.163Z,12.15
2022-11-23T02:15:58.793Z,12.00
2022-11-23T02:18:50.649Z,12.23
2022-11-23T02:21:41.415Z,12.60
2022-11-23T02:24:35.162Z,9.60
2022-11-23T02:27:26.202Z,12.82
2022-11-23T02:30:14.787Z,12.45
2022-11-23T02:33:05.975Z,12.50
2022-11-23T02:35:56.251Z,10.90
2022-11-23T02:38:44.713Z,10.40
2022-11-23T02:41:37.118Z,12.75
2022-11-23T02:44:38.461Z,12.85
2022-11-23T02:50:15.438Z,12.13
2022-11-23T02:53:03.792Z,12.60
2022-11-23T02:55:52.111Z,13.13
2022-11-23T02:58:40.448Z,12.73
2022-11-23T03:01:30.960Z,13.85
2022-11-23T03:04:25.893Z,12.90
2022-11-23T03:07:15.909Z,13.90
2022-11-23T03:10:05.368Z,13.25
2022-11-23T03:12:56.494Z,13.35
2022-11-23T03:15:45.394Z,12.30
2022-11-23T03:18:35.132Z,12.45
2022-11-23T03:21:23.473Z,13.30
2022-11-23T03:24:11.891Z,12.45
2022-11-23T03:27:00.274Z,12.82
2022-11-23T03:29:48.722Z,13.65
2022-11-23T03:32:37.304Z,12.13
2022-11-23T03:35:27.018Z,13.00
2022-11-23T03:38:15.845Z,12.25
2022-11-23T03:41:04.166Z,11.90
2022-11-23T03:43:52.493Z,11.98
2022-11-23T03:46:40.913Z,11.32
2022-11-23T03:49:29.565Z,11.15
2022-11-23T03:52:19.434Z,12.50
2022-11-23T03:55:08.465Z,11.57
2022-11-23T03:57:59.609Z,12.57
2022-11-23T04:00:47.974Z,12.77
2022-11-23T04:03:36.396Z,12.85
2022-11-23T04:06:24.758Z,12.13
2022-11-23T04:09:15.032Z,11.88
2022-11-23T04:12:03.394Z,12.60
2022-11-23T04:14:51.760Z,13.15
2022-11-23T04:17:40.108Z,12.15
2022-11-23T04:20:28.526Z,12.18
2022-11-23T04:23:16.806Z,12.63
2022-11-23T04:26:06.725Z,13.18
2022-11-23T04:28:55.016Z,13.38
2022-11-23T04:31:43.340Z,12.00
2022-11-23T04:34:31.659Z,13.10
2022-11-23T04:37:20.007Z,13.35
2022-11-23T04:40:09.468Z,13.35
2022-11-23T04:43:01.820Z,12.25
2022-11-23T04:45:50.543Z,12.63
2022-11-23T04:48:38.904Z,13.25
2022-11-23T04:51:27.240Z,13.30
2022-11-23T04:54:15.505Z,12.75
2022-11-23T04:57:03.854Z,12.52
2022-11-23T04:59:53.574Z,12.48
2022-11-23T05:02:41.942Z,13.55
2022-11-23T05:05:30.245Z,13.00
2022-11-23T05:08:18.639Z,13.70
2022-11-23T05:11:07.260Z,13.20
2022-11-23T05:13:55.588Z,12.55
2022-11-23T05:16:45.223Z,12.73
2022-11-23T05:19:33.803Z,13.35
2022-11-23T05:22:22.320Z,14.23
2022-11-23T05:25:11.004Z,14.45
2022-11-23T05:28:11.214Z,15.20
2022-11-23T05:31:07.854Z,15.02
2022-11-23T05:33:57.538Z,28.27
2022-11-23T05:36:45.874Z,51.33
2022-11-23T05:39:34.655Z,61.00
2022-11-23T05:42:23.524Z,64.68
2022-11-23T05:45:12.112Z,56.22
2022-11-23T05:48:00.957Z,38.20
2022-11-23T05:50:51.672Z,26.02
2022-11-23T05:53:39.970Z,18.08
2022-11-23T05:56:28.375Z,15.45
2022-11-23T05:59:16.700Z,14.32
2022-11-23T06:02:05.309Z,14.07
2022-11-23T06:04:53.650Z,13.38
2022-11-23T06:07:43.451Z,15.02
2022-11-23T06:10:31.849Z,13.77
2022-11-23T06:13:20.164Z,14.45
2022-11-23T06:16:08.867Z,13.15
2022-11-23T06:18:57.234Z,14.88
2022-11-23T06:21:50.210Z,14.10
2022-11-23T06:24:40.367Z,14.25
2022-11-23T06:27:28.838Z,14.40
2022-11-23T06:30:17.608Z,14.98
2022-11-23T06:33:06.329Z,14.10
2022-11-23T06:35:55.394Z,13.57
2022-11-23T06:38:43.725Z,13.18
2022-11-23T06:41:33.455Z,13.75
2022-11-23T06:44:21.894Z,13.35
2022-11-23T06:47:15.340Z,12.45
2022-11-23T06:50:06.077Z,12.13
2022-11-23T06:52:56.648Z,12.60
2022-11-23T06:55:44.967Z,12.10
2022-11-23T06:58:34.910Z,11.93
2022-11-23T07:01:23.280Z,12.07
2022-11-23T07:04:11.681Z,11.63
2022-11-23T07:06:59.962Z,12.52
2022-11-23T07:09:48.451Z,12.00
2022-11-23T07:12:36.799Z,11.35
2022-11-23T07:15:26.549Z,11.50
2022-11-23T07:18:16.560Z,12.57
2022-11-23T07:21:05.020Z,11.93
2022-11-23T07:23:53.394Z,10.65
2022-11-23T07:26:42.081Z,11.07
2022-11-23T07:29:30.698Z,11.93
2022-11-23T07:32:20.598Z,11.82
2022-11-23T07:35:09.780Z,12.82
2022-11-23T07:37:58.100Z,12.02
2022-11-23T07:40:49.823Z,12.60
2022-11-23T07:43:38.197Z,18.10
2022-11-23T07:46:26.506Z,18.10
2022-11-23T07:49:16.219Z,11.70
2022-11-23T07:52:04.919Z,11.40
2022-11-23T07:54:53.310Z,11.55
2022-11-23T07:57:41.622Z,10.13
2022-11-23T08:00:30.722Z,9.38
2022-11-23T08:03:27.736Z,9.80
2022-11-23T08:06:18.295Z,9.15
2022-11-23T08:09:06.659Z,9.60
2022-11-23T08:11:55.096Z,9.02
2022-11-23T08:14:43.398Z,8.40
2022-11-23T08:17:31.855Z,9.38
2022-11-23T08:20:23.015Z,9.00
2022-11-23T08:26:03.448Z,7.55
2022-11-23T08:28:53.170Z,8.57
2022-11-23T08:31:41.446Z,8.38
2022-11-23T08:34:30.138Z,8.13
2022-11-23T08:37:18.720Z,8.00
2022-11-23T08:40:09.851Z,7.35
2022-11-23T08:42:58.302Z,6.65
2022-11-23T08:45:46.592Z,7.22
2022-11-23T08:48:34.925Z,6.63
2022-11-23T08:51:23.477Z,6.07
2022-11-23T08:54:12.228Z,6.38
2022-11-23T08:57:01.892Z,7.40
2022-11-23T08:59:50.252Z,7.63
2022-11-23T09:02:38.583Z,8.00
2022-11-23T09:05:27.481Z,8.60
2022-11-23T09:08:16.520Z,7.30
2022-11-23T09:11:06.657Z,6.25
2022-11-23T09:13:56.557Z,7.53
2022-11-23T09:16:44.861Z,7.57
2022-11-23T09:19:33.288Z,8.18
2022-11-23T09:22:21.595Z,8.15
2022-11-23T09:25:10.338Z,7.22
2022-11-23T09:28:00.004Z,7.20
2022-11-23T09:30:49.775Z,6.68
2022-11-23T09:33:38.093Z,6.72
2022-11-23T09:36:26.479Z,7.25
2022-11-23T09:39:14.899Z,7.28
2022-11-23T09:42:32.817Z,6.78
2022-11-23T09:45:27.321Z,7.30
2022-11-23T09:48:44.433Z,6.35
2022-11-23T09:51:32.773Z,6.15
2022-11-23T09:54:27.696Z,7.45
2022-11-23T09:57:21.628Z,7.15
2022-11-23T10:00:19.887Z,6.78
2022-11-23T10:03:12.492Z,6.40
2022-11-23T10:06:08.246Z,5.57
2022-11-23T10:09:19.365Z,5.85
2022-11-23T10:12:26.781Z,5.53
2022-11-23T10:15:21.882Z,5.97
2022-11-23T10:18:23.794Z,6.07
2022-11-23T10:21:20.534Z,5.47
2022-11-23T10:24:20.157Z,5.75
2022-11-23T10:27:15.311Z,5.75
2022-11-23T10:30:04.013Z,5.45
2022-11-23T10:32:56.515Z,5.47
2022-11-23T10:35:44.828Z,5.50
2022-11-23T10:38:35.524Z,5.90
2022-11-23T10:41:23.873Z,6.15
2022-11-23T10:44:25.908Z,5.47
2022-11-23T10:47:37.962Z,5.75
2022-11-23T10:50:30.174Z,5.07
2022-11-23T10:53:23.934Z,5.60
2022-11-23T10:56:15.049Z,5.45
2022-11-23T11:02:01.745Z,4.90
2022-11-23T11:04:58.424Z,4.68
2022-11-23T11:07:48.131Z,5.13
2022-11-23T11:10:40.520Z,5.10
2022-11-23T11:13:31.316Z,4.70
2022-11-23T11:16:22.447Z,4.45
2022-11-23T11:22:30.099Z,5.35
2022-11-23T11:25:30.878Z,4.28
2022-11-23T11:28:26.431Z,4.22
2022-11-23T11:31:45.069Z,3.50
2022-11-23T11:34:42.967Z,3.65
2022-11-23T11:37:36.130Z,3.65
2022-11-23T11:40:33.224Z,3.22
2022-11-23T11:43:34.754Z,3.25
2022-11-23T11:46:33.966Z,4.10
2022-11-23T11:49:26.438Z,3.50
2022-11-23T11:52:22.109Z,3.00
2022-11-23T11:55:19.800Z,2.60
2022-11-23T11:58:12.572Z,1.88
2022-11-23T12:01:08.391Z,2.15
2022-11-23T12:04:00.544Z,2.08
2022-11-23T12:06:53.793Z,1.70
2022-11-23T12:09:45.967Z,2.13
2022-11-23T12:12:38.035Z,1.60
2022-11-23T12:15:48.857Z,1.92
2022-11-23T12:19:01.068Z,1.80
2022-11-23T12:22:22.867Z,2.42
2022-11-23T12:25:20.729Z,2.58
2022-11-23T12:28:22.299Z,2.22
2022-11-23T12:31:19.318Z,1.92
2022-11-23T12:34:18.989Z,2.05
2022-11-23T12:37:30.868Z,1.70
2022-11-23T12:40:31.900Z,1.80
2022-11-23T12:43:25.816Z,1.65
2022-11-23T12:46:23.326Z,2.28
2022-11-23T12:49:27.539Z,2.00
2022-11-23T12:52:30.743Z,2.63
2022-11-23T12:55:24.609Z,2.60
2022-11-23T12:58:20.460Z,2.38
2022-11-23T13:01:15.362Z,2.40
2022-11-23T13:04:44.506Z,2.10
2022-11-23T13:08:12.614Z,2.63
2022-11-23T13:11:16.799Z,2.30
2022-11-23T13:14:17.580Z,2.25
2022-11-23T13:17:29.577Z,2.45
2022-11-23T13:20:43.046Z,2.55
2022-11-23T13:23:37.197Z,2.33
2022-11-23T13:26:28.146Z,2.40
2022-11-23T13:29:58.586Z,2.30
2022-11-23T13:32:58.654Z,2.37
2022-11-23T13:36:09.208Z,2.13
2022-11-23T13:39:00.668Z,2.17
2022-11-23T13:42:01.666Z,2.25
2022-11-23T13:44:50.107Z,2.50
2022-11-23T13:47:42.432Z,2.03
2022-11-23T13:50:34.255Z,1.80
2022-11-23T13:53:24.668Z,2.10
2022-11-23T13:56:41.393Z,1.75
2022-11-23T13:59:33.457Z,2.15
2022-11-23T14:02:27.881Z,1.80
2022-11-23T14:05:59.125Z,1.42
2022-11-23T14:08:49.895Z,1.50
2022-11-23T14:11:50.190Z,2.15
2022-11-23T14:14:51.728Z,1.60
2022-11-23T14:18:06.536Z,2.03
2022-11-23T14:21:13.547Z,2.08
2022-11-23T14:24:39.373Z,2.35
2022-11-23T14:27:48.887Z,2.13
2022-11-23T14:30:47.785Z,2.38
2022-11-23T14:33:43.867Z,2.00
2022-11-23T14:36:40.538Z,2.50
2022-11-23T14:39:55.767Z,2.85
2022-11-23T14:42:46.421Z,2.67
2022-11-23T14:45:36.024Z,2.20
2022-11-23T14:48:28.986Z,2.40
2022-11-23T14:51:19.965Z,2.40
2022-11-23T14:54:11.267Z,2.85
2022-11-23T14:57:03.822Z,2.80
2022-11-23T14:59:55.428Z,3.92
2022-11-23T15:02:44.687Z,3.72
2022-11-23T15:05:34.952Z,3.78
2022-11-23T15:08:26.845Z,3.72
2022-11-23T15:11:19.058Z,4.00
2022-11-23T15:14:20.882Z,4.85
2022-11-23T15:17:16.258Z,4.28
2022-11-23T15:20:05.413Z,3.75
2022-11-23T15:22:53.976Z,4.70
2022-11-23T15:25:52.299Z,4.75
2022-11-23T15:28:40.936Z,4.20
2022-11-23T15:31:33.878Z,4.18
2022-11-23T15:34:23.011Z,4.13
2022-11-23T15:37:12.075Z,3.65
2022-11-23T15:40:01.229Z,3.50
2022-11-23T15:42:51.548Z,3.90
2022-11-23T15:45:59.818Z,3.90
2022-11-23T15:48:51.189Z,3.38
2022-11-23T15:51:41.945Z,3.10
2022-11-23T15:54:35.887Z,3.22
2022-11-23T15:57:28.264Z,3.33
2022-11-23T16:00:24.952Z,3.05
2022-11-23T16:03:33.749Z,2.92
2022-11-23T16:06:35.731Z,2.90
2022-11-23T16:09:58.536Z,3.00
2022-11-23T16:12:50.151Z,2.80
2022-11-23T16:15:42.056Z,2.80
2022-11-23T16:18:31.897Z,3.28
2022-11-23T16:21:21.776Z,3.30
2022-11-23T16:24:21.138Z,3.42
2022-11-23T16:27:16.316Z,3.45
2022-11-23T16:30:05.967Z,4.40
2022-11-23T16:32:54.447Z,4.10
2022-11-23T16:35:43.136Z,4.03
2022-11-23T16:38:31.942Z,4.60
2022-11-23T16:41:21.689Z,4.72
2022-11-23T16:44:10.042Z,5.13
2022-11-23T16:47:21.015Z,5.35
2022-11-23T16:50:13.805Z,6.03
2022-11-23T16:53:10.219Z,5.47
2022-11-23T16:55:59.870Z,5.60
2022-11-23T16:58:49.914Z,5.75
2022-11-23T17:01:40.249Z,5.85
2022-11-23T17:04:28.724Z,5.95
2022-11-23T17:07:17.519Z,5.47
2022-11-23T17:10:06.697Z,5.32
2022-11-23T17:12:56.825Z,5.30
2022-11-23T17:15:46.496Z,4.22
2022-11-23T17:18:34.850Z,5.32
2022-11-23T17:21:23.290Z,5.18
2022-11-23T17:24:12.880Z,4.55
2022-11-23T17:27:01.435Z,4.40
2022-11-23T17:29:54.732Z,5.07
2022-11-23T17:32:44.496Z,5.45
2022-11-23T17:35:36.895Z,5.78
2022-11-23T17:38:27.933Z,5.57
2022-11-23T17:41:16.793Z,5.80
2022-11-23T17:44:05.687Z,5.90
2022-11-23T17:46:58.668Z,5.55
2022-11-23T17:49:49.431Z,6.13
2022-11-23T17:52:40.611Z,5.95
2022-11-23T17:58:17.311Z,5.72
2022-11-23T18:01:05.991Z,6.60
2022-11-23T18:03:54.521Z,6.63
2022-11-23T18:06:44.318Z,6.35
2022-11-23T18:09:33.066Z,6.75
2022-11-23T18:12:21.591Z,7.25
2022-11-23T18:15:10.704Z,6.82
2022-11-23T18:18:04.383Z,7.35
2022-11-23T18:20:53.259Z,8.23
2022-11-23T18:23:43.186Z,7.57
2022-11-23T18:26:32.083Z,8.10
2022-11-23T18:29:20.524Z,19.25
2022-11-23T18:32:09.400Z,26.58
2022-11-23T18:34:57.738Z,12.98
2022-11-23T18:37:46.045Z,9.55
2022-11-23T18:40:35.770Z,9.65
2022-11-23T18:43:24.359Z,8.38
2022-11-23T18:46:19.044Z,9.20
2022-11-23T18:49:08.270Z,8.20
2022-11-23T18:51:56.619Z,8.40
2022-11-23T18:54:44.923Z,8.10
2022-11-23T18:57:34.633Z,8.43
2022-11-23T19:00:23.506Z,8.93
2022-11-23T19:03:12.710Z,8.68
2022-11-23T19:06:03.245Z,8.85
2022-11-23T19:08:54.523Z,9.05
2022-11-23T19:14:32.333Z,8.45
2022-11-23T19:17:20.655Z,9.07
2022-11-23T19:20:10.335Z,10.18
2022-11-23T19:22:58.665Z,9.30
2022-11-23T19:25:47.014Z,10.65
2022-11-23T19:28:35.982Z,10.43
2022-11-23T19:31:27.464Z,11.25
2022-11-23T19:34:15.812Z,10.95
2022-11-23T19:37:04.205Z,9.68
2022-11-23T19:39:52.571Z,9.20
2022-11-23T19:42:42.653Z,9.25
2022-11-23T19:45:30.942Z,9.95
2022-11-23T19:48:22.556Z,10.13
2022-11-23T19:51:13.017Z,11.32
2022-11-23T19:54:02.138Z,10.95
2022-11-23T19:56:51.027Z,11.23
2022-11-23T19:59:39.391Z,8.98
2022-11-23T20:02:29.978Z,9.95
2022-11-23T20:05:19.733Z,9.98
2022-11-23T20:08:08.749Z,10.55
2022-11-23T20:10:57.896Z,10.25
2022-11-23T20:13:46.262Z,9.90
2022-11-23T20:16:35.068Z,9.45
2022-11-23T20:19:23.910Z,9.27
2022-11-23T20:22:13.640Z,9.82
2022-11-23T20:25:01.936Z,9.70
2022-11-23T20:27:50.349Z,9.32
2022-11-23T20:30:38.742Z,9.10
2022-11-23T20:33:27.643Z,10.10
2022-11-23T20:36:17.587Z,9.68
2022-11-23T20:39:09.101Z,9.45
2022-11-23T20:41:58.709Z,9.50
2022-11-23T20:44:47.135Z,8.85
2022-11-23T20:47:35.545Z,9.90
2022-11-23T20:50:25.367Z,9.60
2022-11-23T20:53:13.758Z,9.93
2022-11-23T20:56:05.467Z,9.52
2022-11-23T20:58:56.394Z,9.32
2022-11-23T21:01:44.756Z,10.95
2022-11-23T21:04:33.375Z,10.10
2022-11-23T21:07:22.433Z,11.38
2022-11-23T21:10:31.252Z,10.85
2022-11-23T21:13:49.264Z,10.38
2022-11-23T21:16:40.668Z,10.20
2022-11-23T21:19:30.731Z,9.73
2022-11-23T21:22:19.343Z,9.57
2022-11-23T21:25:08.420Z,10.02
2022-11-23T21:27:58.194Z,10.25
2022-11-23T21:30:47.937Z,9.43
2022-11-23T21:33:37.286Z,9.10
2022-11-23T21:36:25.638Z,9.63
2022-11-23T21:39:14.856Z,10.02
2022-11-23T21:42:03.474Z,9.73
2022-11-23T21:44:52.025Z,10.25
2022-11-23T21:47:41.741Z,10.55
2022-11-23T21:50:30.106Z,10.15
2022-11-23T21:53:19.386Z,10.00
2022-11-23T21:56:09.567Z,10.98
2022-11-23T21:58:59.379Z,11.45
2022-11-23T22:01:47.801Z,10.98
2022-11-23T22:04:38.684Z,9.68
2022-11-23T22:07:27.033Z,10.18
2022-11-23T22:10:15.520Z,9.82
2022-11-23T22:13:03.896Z,10.35
2022-11-23T22:15:52.246Z,10.18
2022-11-23T22:18:40.637Z,9.85
2022-11-23T22:21:33.686Z,10.32
2022-11-23T22:24:22.602Z,9.60
2022-11-23T22:27:11.215Z,9.25
2022-11-23T22:29:59.505Z,9.27
2022-11-23T22:32:48.335Z,8.73
2022-11-23T22:35:36.634Z,9.82
2022-11-23T22:38:26.267Z,10.52
2022-11-23T22:41:16.278Z,9.35
2022-11-23T22:44:05.385Z,10.00
2022-11-23T22:46:53.654Z,10.20
2022-11-23T22:49:41.956Z,9.85
2022-11-23T22:52:30.277Z,10.00
2022-11-23T22:55:19.985Z,10.68
2022-11-23T22:58:08.609Z,11.07
2022-11-23T23:00:57.459Z,10.90
2022-11-23T23:03:46.637Z,11.02
2022-11-23T23:06:35.874Z,10.60
2022-11-23T23:09:24.294Z,10.13
2022-11-23T23:12:14.019Z,9.88
2022-11-23T23:15:03.634Z,9.75
2022-11-23T23:17:51.947Z,10.15
2022-11-23T23:20:40.328Z,9.82
2022-11-23T23:23:28.735Z,9.50
2022-11-23T23:26:18.622Z,9.48
2022-11-23T23:29:08.361Z,9.30
2022-11-23T23:31:56.755Z,9.38
2022-11-23T23:34:45.080Z,8.75
2022-11-23T23:37:33.473Z,8.70
2022-11-23T23:40:22.434Z,9.48
2022-11-23T23:43:10.808Z,8.90
2022-11-23T23:46:02.342Z,8.63
2022-11-23T23:48:50.745Z,8.88
2022-11-23T23:51:39.338Z,8.57
2022-11-23T23:54:27.715Z,9.40
2022-11-23T23:57:16.167Z,9.55
